sensor_id;sensor_type;location;lat;lon;timestamp;pressure;altitude;pressure_sealevel;temperature;humidity
5522;BME280;2783;48.730;8.006;2023-01-28T00:01:04;100787.13;;;4.32;77.68
5522;BME280;2783;48.730;8.006;2023-01-28T00:03:30;100790.66;;;4.31;77.87
5522;BME280;2783;48.730;8.006;2023-01-28T00:06:00;100784.50;;;4.31;77.58
5522;BME280;2783;48.730;8.006;2023-01-28T00:08:26;100777.44;;;4.25;77.89
5522;BME280;2783;48.730;8.006;2023-01-28T00:10:51;100781.78;;;4.19;78.10
5522;BME280;2783;48.730;8.006;2023-01-28T00:13:16;100774.75;;;4.13;78.40
5522;BME280;2783;48.730;8.006;2023-01-28T00:15:42;100780.03;;;4.10;78.54
5522;BME280;2783;48.730;8.006;2023-01-28T00:18:07;100787.91;;;4.12;78.68
5522;BME280;2783;48.730;8.006;2023-01-28T00:20:33;100789.66;;;4.10;78.81
5522;BME280;2783;48.730;8.006;2023-01-28T00:22:59;100785.25;;;4.07;79.16
5522;BME280;2783;48.730;8.006;2023-01-28T00:25:24;100789.66;;;4.11;79.36
5522;BME280;2783;48.730;8.006;2023-01-28T00:27:50;100788.78;;;4.12;79.46
5522;BME280;2783;48.730;8.006;2023-01-28T00:30:15;100786.19;;;4.15;79.63
5522;BME280;2783;48.730;8.006;2023-01-28T00:32:41;100785.28;;;4.13;80.01
5522;BME280;2783;48.730;8.006;2023-01-28T00:35:06;100781.75;;;4.11;79.49
5522;BME280;2783;48.730;8.006;2023-01-28T00:37:32;100780.88;;;4.07;79.43
5522;BME280;2783;48.730;8.006;2023-01-28T00:39:57;100781.69;;;4.00;79.57
5522;BME280;2783;48.730;8.006;2023-01-28T00:42:22;100779.94;;;3.96;79.37
5522;BME280;2783;48.730;8.006;2023-01-28T00:44:47;100783.38;;;3.88;80.06
5522;BME280;2783;48.730;8.006;2023-01-28T00:47:12;100786.81;;;3.78;80.07
5522;BME280;2783;48.730;8.006;2023-01-28T00:49:38;100778.88;;;3.70;80.94
5522;BME280;2783;48.730;8.006;2023-01-28T00:52:03;100782.34;;;3.65;81.50
5522;BME280;2783;48.730;8.006;2023-01-28T00:54:28;100794.66;;;3.70;81.95
5522;BME280;2783;48.730;8.006;2023-01-28T00:56:54;100785.91;;;3.71;81.65
5522;BME280;2783;48.730;8.006;2023-01-28T00:59:19;100793.78;;;3.73;81.73
5522;BME280;2783;48.730;8.006;2023-01-28T01:01:44;100792.03;;;3.72;82.15
5522;BME280;2783;48.730;8.006;2023-01-28T01:04:10;100793.81;;;3.76;82.07
5522;BME280;2783;48.730;8.006;2023-01-28T01:06:36;100801.72;;;3.79;81.89
5522;BME280;2783;48.730;8.006;2023-01-28T01:09:02;100800.88;;;3.83;81.56
5522;BME280;2783;48.730;8.006;2023-01-28T01:11:28;100802.69;;;3.87;81.54
5522;BME280;2783;48.730;8.006;2023-01-28T01:13:54;100804.44;;;3.91;81.67
5522;BME280;2783;48.730;8.006;2023-01-28T01:16:21;100801.84;;;3.95;81.20
5522;BME280;2783;48.730;8.006;2023-01-28T01:18:47;100792.22;;;3.99;81.17
5522;BME280;2783;48.730;8.006;2023-01-28T01:21:13;100797.53;;;4.08;81.26
5522;BME280;2783;48.730;8.006;2023-01-28T01:23:39;100803.72;;;4.10;80.65
5522;BME280;2783;48.730;8.006;2023-01-28T01:26:05;100805.47;;;4.14;80.69
5522;BME280;2783;48.730;8.006;2023-01-28T01:28:30;100815.16;;;4.15;80.78
5522;BME280;2783;48.730;8.006;2023-01-28T01:30:59;100817.78;;;4.15;80.15
5522;BME280;2783;48.730;8.006;2023-01-28T01:33:26;100820.44;;;4.21;80.29
5522;BME280;2783;48.730;8.006;2023-01-28T01:35:52;100822.19;;;4.22;79.87
5522;BME280;2783;48.730;8.006;2023-01-28T01:38:18;100817.81;;;4.21;79.89
5522;BME280;2783;48.730;8.006;2023-01-28T01:40:44;100818.72;;;4.26;79.56
5522;BME280;2783;48.730;8.006;2023-01-28T01:43:18;100813.44;;;4.26;79.71
5522;BME280;2783;48.730;8.006;2023-01-28T01:45:44;100816.91;;;4.22;79.63
5522;BME280;2783;48.730;8.006;2023-01-28T01:48:16;100811.66;;;4.25;79.45
5522;BME280;2783;48.730;8.006;2023-01-28T01:50:57;100804.66;;;4.30;79.42
5522;BME280;2783;48.730;8.006;2023-01-28T01:53:24;100804.72;;;4.33;79.25
5522;BME280;2783;48.730;8.006;2023-01-28T01:55:52;100799.44;;;4.33;79.11
5522;BME280;2783;48.730;8.006;2023-01-28T01:58:18;100795.03;;;4.35;79.31
5522;BME280;2783;48.730;8.006;2023-01-28T02:00:45;100799.47;;;4.36;79.28
5522;BME280;2783;48.730;8.006;2023-01-28T02:03:10;100806.47;;;4.37;79.43
5522;BME280;2783;48.730;8.006;2023-01-28T02:05:36;100802.09;;;4.36;79.34
5522;BME280;2783;48.730;8.006;2023-01-28T02:08:02;100792.41;;;4.34;79.62
5522;BME280;2783;48.730;8.006;2023-01-28T02:10:47;100800.31;;;4.35;79.77
5522;BME280;2783;48.730;8.006;2023-01-28T02:13:13;100801.19;;;4.34;80.03
5522;BME280;2783;48.730;8.006;2023-01-28T02:15:40;100802.97;;;4.38;79.59
5522;BME280;2783;48.730;8.006;2023-01-28T02:18:06;100798.56;;;4.39;79.77
5522;BME280;2783;48.730;8.006;2023-01-28T02:23:26;100794.19;;;4.39;80.05
5522;BME280;2783;48.730;8.006;2023-01-28T02:29:06;100797.72;;;4.38;79.86
5522;BME280;2783;48.730;8.006;2023-01-28T02:31:16;100803.00;;;4.41;80.04
5522;BME280;2783;48.730;8.006;2023-01-28T02:33:58;100803.84;;;4.40;79.86
5522;BME280;2783;48.730;8.006;2023-01-28T02:38:55;100805.63;;;4.43;79.86
5522;BME280;2783;48.730;8.006;2023-01-28T02:41:24;100797.75;;;4.47;79.36
5522;BME280;2783;48.730;8.006;2023-01-28T02:43:53;100807.44;;;4.54;79.34
5522;BME280;2783;48.730;8.006;2023-01-28T02:46:32;100811.81;;;4.52;79.86
5522;BME280;2783;48.730;8.006;2023-01-28T02:49:37;100816.19;;;4.50;79.65
5522;BME280;2783;48.730;8.006;2023-01-28T02:59:41;100818.81;;;4.44;79.86
5522;BME280;2783;48.730;8.006;2023-01-28T03:02:21;100810.00;;;4.45;79.67
5522;BME280;2783;48.730;8.006;2023-01-28T03:04:52;100819.66;;;4.42;79.87
5522;BME280;2783;48.730;8.006;2023-01-28T03:07:21;100821.44;;;4.43;79.89
5522;BME280;2783;48.730;8.006;2023-01-28T03:09:47;100818.81;;;4.43;79.84
5522;BME280;2783;48.730;8.006;2023-01-28T03:12:17;100817.97;;;4.50;79.75
5522;BME280;2783;48.730;8.006;2023-01-28T03:17:48;100809.19;;;4.55;79.86
5522;BME280;2783;48.730;8.006;2023-01-28T03:23:37;100815.34;;;4.57;80.33
5522;BME280;2783;48.730;8.006;2023-01-28T03:26:22;100810.91;;;4.52;80.78
5522;BME280;2783;48.730;8.006;2023-01-28T03:29:08;100819.72;;;4.51;80.88
5522;BME280;2783;48.730;8.006;2023-01-28T03:31:54;100813.56;;;4.53;81.03
5522;BME280;2783;48.730;8.006;2023-01-28T03:34:38;100818.81;;;4.49;81.31
5522;BME280;2783;48.730;8.006;2023-01-28T03:37:22;100819.72;;;4.49;81.47
5522;BME280;2783;48.730;8.006;2023-01-28T03:39:48;100823.22;;;4.51;81.63
5522;BME280;2783;48.730;8.006;2023-01-28T03:42:14;100821.47;;;4.52;81.29
5522;BME280;2783;48.730;8.006;2023-01-28T03:44:39;100824.09;;;4.53;80.94
5522;BME280;2783;48.730;8.006;2023-01-28T03:47:20;100827.63;;;4.55;80.89
5522;BME280;2783;48.730;8.006;2023-01-28T03:49:47;100826.78;;;4.56;81.48
5522;BME280;2783;48.730;8.006;2023-01-28T03:52:14;100839.06;;;4.59;81.39
5522;BME280;2783;48.730;8.006;2023-01-28T03:54:39;100832.91;;;4.55;81.77
5522;BME280;2783;48.730;8.006;2023-01-28T03:57:05;100836.41;;;4.54;81.91
5522;BME280;2783;48.730;8.006;2023-01-28T03:59:31;100839.91;;;4.50;82.17
5522;BME280;2783;48.730;8.006;2023-01-28T04:01:56;100841.69;;;4.54;81.85
5522;BME280;2783;48.730;8.006;2023-01-28T04:04:21;100841.69;;;4.54;82.02
5522;BME280;2783;48.730;8.006;2023-01-28T04:06:49;100839.94;;;4.59;81.90
5522;BME280;2783;48.730;8.006;2023-01-28T04:09:14;100842.59;;;4.59;82.41
5522;BME280;2783;48.730;8.006;2023-01-28T04:11:39;100839.94;;;4.59;82.21
5522;BME280;2783;48.730;8.006;2023-01-28T04:14:05;100838.19;;;4.61;82.24
5522;BME280;2783;48.730;8.006;2023-01-28T04:16:30;100837.31;;;4.59;82.33
5522;BME280;2783;48.730;8.006;2023-01-28T04:18:55;100843.44;;;4.61;82.53
5522;BME280;2783;48.730;8.006;2023-01-28T04:21:22;100846.13;;;4.63;81.81
5522;BME280;2783;48.730;8.006;2023-01-28T04:23:47;100836.44;;;4.60;82.36
5522;BME280;2783;48.730;8.006;2023-01-28T04:26:12;100845.22;;;4.62;82.37
5522;BME280;2783;48.730;8.006;2023-01-28T04:28:37;100846.97;;;4.62;82.69
5522;BME280;2783;48.730;8.006;2023-01-28T04:31:03;100850.50;;;4.59;82.64
5522;BME280;2783;48.730;8.006;2023-01-28T04:33:28;100855.78;;;4.65;82.54
5522;BME280;2783;48.730;8.006;2023-01-28T04:35:53;100856.66;;;4.67;82.77
5522;BME280;2783;48.730;8.006;2023-01-28T04:38:18;100857.53;;;4.66;82.79
5522;BME280;2783;48.730;8.006;2023-01-28T04:40:44;100852.25;;;4.66;83.25
5522;BME280;2783;48.730;8.006;2023-01-28T04:43:09;100854.88;;;4.66;82.85
5522;BME280;2783;48.730;8.006;2023-01-28T04:45:34;100856.66;;;4.69;83.27
5522;BME280;2783;48.730;8.006;2023-01-28T04:47:59;100865.47;;;4.68;83.67
5522;BME280;2783;48.730;8.006;2023-01-28T04:50:25;100848.78;;;4.70;83.82
5522;BME280;2783;48.730;8.006;2023-01-28T04:52:50;100854.03;;;4.67;83.81
5522;BME280;2783;48.730;8.006;2023-01-28T04:55:15;100861.03;;;4.62;83.80
5522;BME280;2783;48.730;8.006;2023-01-28T04:57:41;100860.13;;;4.59;84.24
5522;BME280;2783;48.730;8.006;2023-01-28T05:00:06;100857.50;;;4.60;84.29
5522;BME280;2783;48.730;8.006;2023-01-28T05:02:31;100865.44;;;4.65;84.51
5522;BME280;2783;48.730;8.006;2023-01-28T05:04:57;100859.28;;;4.63;84.29
5522;BME280;2783;48.730;8.006;2023-01-28T05:07:22;100861.03;;;4.61;84.51
5522;BME280;2783;48.730;8.006;2023-01-28T05:09:47;100855.75;;;4.59;85.19
5522;BME280;2783;48.730;8.006;2023-01-28T05:12:13;100857.50;;;4.60;85.83
5522;BME280;2783;48.730;8.006;2023-01-28T05:14:38;100864.50;;;4.58;85.97
5522;BME280;2783;48.730;8.006;2023-01-28T05:17:03;100865.41;;;4.62;86.22
5522;BME280;2783;48.730;8.006;2023-01-28T05:19:28;100867.16;;;4.58;87.00
5522;BME280;2783;48.730;8.006;2023-01-28T05:21:54;100873.31;;;4.60;87.07
5522;BME280;2783;48.730;8.006;2023-01-28T05:24:19;100867.19;;;4.63;87.22
5522;BME280;2783;48.730;8.006;2023-01-28T05:26:45;100866.31;;;4.62;87.12
5522;BME280;2783;48.730;8.006;2023-01-28T05:29:10;100878.59;;;4.62;87.31
5522;BME280;2783;48.730;8.006;2023-01-28T05:31:36;100875.06;;;4.61;87.70
5522;BME280;2783;48.730;8.006;2023-01-28T05:34:01;100873.31;;;4.63;88.15
5522;BME280;2783;48.730;8.006;2023-01-28T05:36:26;100871.56;;;4.62;88.32
5522;BME280;2783;48.730;8.006;2023-01-28T05:38:51;100864.50;;;4.52;89.02
5522;BME280;2783;48.730;8.006;2023-01-28T05:41:17;100878.59;;;4.59;88.99
5522;BME280;2783;48.730;8.006;2023-01-28T05:43:42;100877.69;;;4.57;88.96
5522;BME280;2783;48.730;8.006;2023-01-28T05:46:07;100874.97;;;4.43;89.33
5522;BME280;2783;48.730;8.006;2023-01-28T05:48:32;100875.03;;;4.49;90.29
5522;BME280;2783;48.730;8.006;2023-01-28T05:50:58;100876.78;;;4.50;89.81
5522;BME280;2783;48.730;8.006;2023-01-28T05:53:23;100879.41;;;4.47;90.72
5522;BME280;2783;48.730;8.006;2023-01-28T05:55:49;100891.72;;;4.50;91.04
5522;BME280;2783;48.730;8.006;2023-01-28T05:58:15;100885.50;;;4.43;92.10
5522;BME280;2783;48.730;8.006;2023-01-28T06:00:40;100890.75;;;4.40;92.43
5522;BME280;2783;48.730;8.006;2023-01-28T06:03:06;100896.91;;;4.39;93.59
5522;BME280;2783;48.730;8.006;2023-01-28T06:05:31;100906.53;;;4.34;93.94
5522;BME280;2783;48.730;8.006;2023-01-28T06:07:56;100906.50;;;4.31;95.09
5522;BME280;2783;48.730;8.006;2023-01-28T06:10:22;100908.25;;;4.29;95.24
5522;BME280;2783;48.730;8.006;2023-01-28T06:12:47;100916.16;;;4.32;95.95
5522;BME280;2783;48.730;8.006;2023-01-28T06:15:12;100911.78;;;4.28;96.46
5522;BME280;2783;48.730;8.006;2023-01-28T06:17:37;100914.34;;;4.25;97.18
5522;BME280;2783;48.730;8.006;2023-01-28T06:20:03;100912.63;;;4.27;97.89
5522;BME280;2783;48.730;8.006;2023-01-28T06:22:28;100911.78;;;4.28;98.29
5522;BME280;2783;48.730;8.006;2023-01-28T06:24:53;100916.09;;;4.22;98.79
5522;BME280;2783;48.730;8.006;2023-01-28T06:27:19;100930.13;;;4.19;99.56
5522;BME280;2783;48.730;8.006;2023-01-28T06:29:44;100930.13;;;4.22;99.48
5522;BME280;2783;48.730;8.006;2023-01-28T06:32:09;100934.47;;;4.17;99.31
5522;BME280;2783;48.730;8.006;2023-01-28T06:34:35;100929.19;;;4.14;99.85
5522;BME280;2783;48.730;8.006;2023-01-28T06:37:00;100926.56;;;4.14;99.97
5522;BME280;2783;48.730;8.006;2023-01-28T06:39:25;100935.28;;;4.08;100.00
5522;BME280;2783;48.730;8.006;2023-01-28T06:41:52;100944.97;;;4.11;100.00
5522;BME280;2783;48.730;8.006;2023-01-28T06:44:17;100949.31;;;4.06;100.00
5522;BME280;2783;48.730;8.006;2023-01-28T06:46:42;100947.56;;;4.03;100.00
5522;BME280;2783;48.730;8.006;2023-01-28T06:49:08;100950.19;;;4.05;100.00
5522;BME280;2783;48.730;8.006;2023-01-28T06:51:33;100946.69;;;4.07;100.00
5522;BME280;2783;48.730;8.006;2023-01-28T06:53:58;100948.50;;;4.10;100.00
5522;BME280;2783;48.730;8.006;2023-01-28T06:56:24;100951.06;;;4.07;100.00
5522;BME280;2783;48.730;8.006;2023-01-28T06:58:49;100952.88;;;4.11;100.00
5522;BME280;2783;48.730;8.006;2023-01-28T07:01:14;100951.13;;;4.10;100.00
5522;BME280;2783;48.730;8.006;2023-01-28T07:03:39;100953.75;;;4.10;100.00
5522;BME280;2783;48.730;8.006;2023-01-28T07:06:05;100951.06;;;4.04;100.00
5522;BME280;2783;48.730;8.006;2023-01-28T07:08:30;100957.22;;;4.04;100.00
5522;BME280;2783;48.730;8.006;2023-01-28T07:10:57;100953.66;;;4.01;100.00
5522;BME280;2783;48.730;8.006;2023-01-28T07:13:22;100954.50;;;3.97;100.00
5522;BME280;2783;48.730;8.006;2023-01-28T07:15:47;100958.81;;;3.90;100.00
5522;BME280;2783;48.730;8.006;2023-01-28T07:18:13;100965.91;;;3.96;100.00
5522;BME280;2783;48.730;8.006;2023-01-28T07:20:39;100958.91;;;3.98;100.00
5522;BME280;2783;48.730;8.006;2023-01-28T07:23:04;100963.25;;;3.93;100.00
5522;BME280;2783;48.730;8.006;2023-01-28T07:25:29;100970.25;;;3.91;100.00
5522;BME280;2783;48.730;8.006;2023-01-28T07:27:55;100974.69;;;3.95;100.00
5522;BME280;2783;48.730;8.006;2023-01-28T07:30:20;100968.53;;;3.97;100.00
5522;BME280;2783;48.730;8.006;2023-01-28T07:32:51;100972.91;;;3.97;100.00
5522;BME280;2783;48.730;8.006;2023-01-28T07:35:17;100979.09;;;4.00;100.00
5522;BME280;2783;48.730;8.006;2023-01-28T07:37:42;100980.88;;;4.01;100.00
5522;BME280;2783;48.730;8.006;2023-01-28T07:40:14;100981.78;;;4.05;100.00
5522;BME280;2783;48.730;8.006;2023-01-28T07:42:39;100980.00;;;4.02;100.00
5522;BME280;2783;48.730;8.006;2023-01-28T07:45:06;100976.53;;;4.08;100.00
5522;BME280;2783;48.730;8.006;2023-01-28T07:47:31;100984.44;;;4.07;100.00
5522;BME280;2783;48.730;8.006;2023-01-28T07:49:57;100978.31;;;4.12;100.00
5522;BME280;2783;48.730;8.006;2023-01-28T07:52:22;100983.66;;;4.18;100.00
5522;BME280;2783;48.730;8.006;2023-01-28T07:54:48;100983.66;;;4.18;100.00
5522;BME280;2783;48.730;8.006;2023-01-28T07:57:13;100991.69;;;4.33;100.00
5522;BME280;2783;48.730;8.006;2023-01-28T07:59:38;100989.88;;;4.31;100.00
5522;BME280;2783;48.730;8.006;2023-01-28T08:02:03;100985.50;;;4.30;100.00
5522;BME280;2783;48.730;8.006;2023-01-28T08:04:29;100991.69;;;4.36;100.00
5522;BME280;2783;48.730;8.006;2023-01-28T08:06:54;100990.81;;;4.37;100.00
5522;BME280;2783;48.730;8.006;2023-01-28T08:09:21;100988.19;;;4.36;100.00
5522;BME280;2783;48.730;8.006;2023-01-28T08:11:46;100990.78;;;4.30;100.00
5522;BME280;2783;48.730;8.006;2023-01-28T08:14:11;101003.06;;;4.34;100.00
5522;BME280;2783;48.730;8.006;2023-01-28T08:16:36;100998.69;;;4.30;100.00
5522;BME280;2783;48.730;8.006;2023-01-28T08:19:02;100998.66;;;4.28;100.00
5522;BME280;2783;48.730;8.006;2023-01-28T08:21:27;101002.25;;;4.38;100.00
5522;BME280;2783;48.730;8.006;2023-01-28T08:23:52;101008.47;;;4.47;100.00
5522;BME280;2783;48.730;8.006;2023-01-28T08:26:18;101007.63;;;4.50;100.00
5522;BME280;2783;48.730;8.006;2023-01-28T08:28:44;101002.28;;;4.44;100.00
5522;BME280;2783;48.730;8.006;2023-01-28T08:31:09;101016.34;;;4.43;100.00
5522;BME280;2783;48.730;8.006;2023-01-28T08:33:34;101012.81;;;4.41;100.00
5522;BME280;2783;48.730;8.006;2023-01-28T08:36:03;101009.34;;;4.48;100.00
5522;BME280;2783;48.730;8.006;2023-01-28T08:38:28;101010.22;;;4.48;100.00
5522;BME280;2783;48.730;8.006;2023-01-28T08:40:57;101010.25;;;4.51;100.00
5522;BME280;2783;48.730;8.006;2023-01-28T08:43:24;101019.09;;;4.56;100.00
5522;BME280;2783;48.730;8.006;2023-01-28T08:45:49;101011.13;;;4.52;100.00
5522;BME280;2783;48.730;8.006;2023-01-28T08:48:15;101019.09;;;4.56;100.00
5522;BME280;2783;48.730;8.006;2023-01-28T08:50:41;101017.34;;;4.61;100.00
5522;BME280;2783;48.730;8.006;2023-01-28T08:53:08;101014.75;;;4.67;100.00
5522;BME280;2783;48.730;8.006;2023-01-28T08:55:34;101016.50;;;4.68;100.00
5522;BME280;2783;48.730;8.006;2023-01-28T08:58:03;101026.19;;;4.69;100.00
5522;BME280;2783;48.730;8.006;2023-01-28T09:00:29;101019.16;;;4.68;100.00
5522;BME280;2783;48.730;8.006;2023-01-28T09:02:54;101022.75;;;4.79;100.00
5522;BME280;2783;48.730;8.006;2023-01-28T09:05:20;101025.41;;;4.82;100.00
5522;BME280;2783;48.730;8.006;2023-01-28T09:07:45;101033.34;;;4.87;100.00
5522;BME280;2783;48.730;8.006;2023-01-28T09:10:10;101028.97;;;4.92;100.00
5522;BME280;2783;48.730;8.006;2023-01-28T09:12:36;101037.81;;;4.97;100.00
5522;BME280;2783;48.730;8.006;2023-01-28T09:15:01;101036.06;;;5.00;100.00
5522;BME280;2783;48.730;8.006;2023-01-28T09:17:27;101034.34;;;5.04;100.00
5522;BME280;2783;48.730;8.006;2023-01-28T09:19:52;101039.66;;;5.13;100.00
5522;BME280;2783;48.730;8.006;2023-01-28T09:22:17;101035.28;;;5.19;100.00
5522;BME280;2783;48.730;8.006;2023-01-28T09:24:43;101044.13;;;5.27;100.00
5522;BME280;2783;48.730;8.006;2023-01-28T09:27:08;101048.56;;;5.37;100.00
5522;BME280;2783;48.730;8.006;2023-01-28T09:29:33;101043.34;;;5.44;100.00
5522;BME280;2783;48.730;8.006;2023-01-28T09:31:59;101041.56;;;5.44;100.00
5522;BME280;2783;48.730;8.006;2023-01-28T09:34:24;101042.47;;;5.54;100.00
5522;BME280;2783;48.730;8.006;2023-01-28T09:36:49;101049.59;;;5.70;100.00
5522;BME280;2783;48.730;8.006;2023-01-28T09:39:15;101056.63;;;5.74;100.00
5522;BME280;2783;48.730;8.006;2023-01-28T09:44:11;101051.34;;;5.77;100.00
5522;BME280;2783;48.730;8.006;2023-01-28T09:46:41;101058.41;;;5.79;100.00
5522;BME280;2783;48.730;8.006;2023-01-28T09:51:53;101060.25;;;5.85;100.00
5522;BME280;2783;48.730;8.006;2023-01-28T09:54:33;101069.91;;;5.87;100.00
5522;BME280;2783;48.730;8.006;2023-01-28T09:57:24;101062.88;;;5.89;100.00
5522;BME280;2783;48.730;8.006;2023-01-28T09:59:48;101056.75;;;5.98;100.00
5522;BME280;2783;48.730;8.006;2023-01-28T10:05:12;101062.03;;;6.10;99.02
5522;BME280;2783;48.730;8.006;2023-01-28T10:07:46;101070.84;;;6.09;98.84
5522;BME280;2783;48.730;8.006;2023-01-28T10:10:16;101062.94;;;6.15;98.81
5522;BME280;2783;48.730;8.006;2023-01-28T10:18:12;101053.28;;;6.56;96.81
5522;BME280;2783;48.730;8.006;2023-01-28T10:20:47;101046.25;;;6.59;96.15
5522;BME280;2783;48.730;8.006;2023-01-28T10:23:21;101042.72;;;6.62;95.14
5522;BME280;2783;48.730;8.006;2023-01-28T10:25:49;101040.06;;;6.68;93.93
5522;BME280;2783;48.730;8.006;2023-01-28T10:28:25;101036.56;;;6.61;92.68
5522;BME280;2783;48.730;8.006;2023-01-28T10:30:52;101045.38;;;6.47;91.78
5522;BME280;2783;48.730;8.006;2023-01-28T10:35:48;101039.19;;;6.67;91.82
5522;BME280;2783;48.730;8.006;2023-01-28T10:38:14;101036.53;;;6.70;92.18
5522;BME280;2783;48.730;8.006;2023-01-28T10:40:41;101039.19;;;6.72;91.79
5522;BME280;2783;48.730;8.006;2023-01-28T10:43:07;101032.13;;;6.68;91.43
5522;BME280;2783;48.730;8.006;2023-01-28T10:45:36;101040.09;;;6.60;91.45
5522;BME280;2783;48.730;8.006;2023-01-28T10:50:53;101041.81;;;6.66;92.14
5522;BME280;2783;48.730;8.006;2023-01-28T10:53:18;101056.81;;;6.67;91.61
5522;BME280;2783;48.730;8.006;2023-01-28T10:55:54;101043.59;;;6.68;90.79
5522;BME280;2783;48.730;8.006;2023-01-28T10:58:21;101041.81;;;6.67;90.67
5522;BME280;2783;48.730;8.006;2023-01-28T11:00:54;101047.13;;;6.66;90.80
5522;BME280;2783;48.730;8.006;2023-01-28T11:03:20;101052.41;;;6.58;90.39
5522;BME280;2783;48.730;8.006;2023-01-28T11:05:50;101045.34;;;6.59;90.86
5522;BME280;2783;48.730;8.006;2023-01-28T11:08:16;101049.78;;;6.60;91.21
5522;BME280;2783;48.730;8.006;2023-01-28T11:10:42;101048.88;;;6.64;90.47
5522;BME280;2783;48.730;8.006;2023-01-28T11:13:21;101043.59;;;6.70;90.60
5522;BME280;2783;48.730;8.006;2023-01-28T11:15:50;101046.25;;;6.58;90.13
5522;BME280;2783;48.730;8.006;2023-01-28T11:18:17;101042.72;;;6.63;90.93
5522;BME280;2783;48.730;8.006;2023-01-28T11:20:48;101047.13;;;6.61;90.58
5522;BME280;2783;48.730;8.006;2023-01-28T11:23:18;101047.13;;;6.63;90.73
5522;BME280;2783;48.730;8.006;2023-01-28T11:25:46;101038.31;;;6.62;90.39
5522;BME280;2783;48.730;8.006;2023-01-28T11:28:16;101051.53;;;6.61;90.02
5522;BME280;2783;48.730;8.006;2023-01-28T11:30:42;101049.75;;;6.54;89.77
5522;BME280;2783;48.730;8.006;2023-01-28T11:33:21;101059.44;;;6.47;90.27
5522;BME280;2783;48.730;8.006;2023-01-28T11:35:54;101057.69;;;6.60;90.66
5522;BME280;2783;48.730;8.006;2023-01-28T11:38:20;101056.81;;;6.58;89.55
5522;BME280;2783;48.730;8.006;2023-01-28T11:40:52;101016.28;;;6.23;90.51
5522;BME280;2783;48.730;8.006;2023-01-28T11:43:19;101061.22;;;6.48;90.35
5522;BME280;2783;48.730;8.006;2023-01-28T11:46:09;101063.88;;;6.47;90.12
5522;BME280;2783;48.730;8.006;2023-01-28T11:48:40;101058.56;;;6.56;90.09
5522;BME280;2783;48.730;8.006;2023-01-28T11:53:56;101058.56;;;6.29;89.01
5522;BME280;2783;48.730;8.006;2023-01-28T12:19:19;101051.53;;;6.61;89.47
5522;BME280;2783;48.730;8.006;2023-01-28T12:24:39;101071.75;;;6.09;89.98
5522;BME280;2783;48.730;8.006;2023-01-28T12:37:58;101051.44;;;5.83;95.14
5522;BME280;2783;48.730;8.006;2023-01-28T12:42:47;101049.69;;;5.85;96.46
5522;BME280;2783;48.730;8.006;2023-01-28T12:45:20;101045.25;;;5.88;96.61
5522;BME280;2783;48.730;8.006;2023-01-28T12:47:50;101051.44;;;5.84;96.73
5522;BME280;2783;48.730;8.006;2023-01-28T12:50:25;101045.25;;;5.82;97.23
5522;BME280;2783;48.730;8.006;2023-01-28T12:52:56;101046.16;;;5.86;97.25
5522;BME280;2783;48.730;8.006;2023-01-28T12:55:39;101049.59;;;5.76;96.39
5522;BME280;2783;48.730;8.006;2023-01-28T12:58:31;101040.81;;;5.80;96.27
5522;BME280;2783;48.730;8.006;2023-01-28T13:00:57;101040.78;;;5.69;96.09
5522;BME280;2783;48.730;8.006;2023-01-28T13:05:59;101045.19;;;5.72;96.64
5522;BME280;2783;48.730;8.006;2023-01-28T13:08:27;101049.59;;;5.76;97.42
5522;BME280;2783;48.730;8.006;2023-01-28T13:10:53;101046.09;;;5.80;96.96
5522;BME280;2783;48.730;8.006;2023-01-28T13:13:39;101050.44;;;5.70;95.63
5522;BME280;2783;48.730;8.006;2023-01-28T13:16:06;101047.84;;;5.81;95.87
5522;BME280;2783;48.730;8.006;2023-01-28T13:21:07;101044.31;;;5.79;95.43
5522;BME280;2783;48.730;8.006;2023-01-28T13:26:10;101046.09;;;5.80;96.33
5522;BME280;2783;48.730;8.006;2023-01-28T13:28:36;101049.69;;;5.85;96.10
5522;BME280;2783;48.730;8.006;2023-01-28T13:33:34;101056.72;;;5.87;96.60
5522;BME280;2783;48.730;8.006;2023-01-28T13:36:09;101053.13;;;5.81;96.20
5522;BME280;2783;48.730;8.006;2023-01-28T13:38:40;101056.72;;;5.83;96.05
5522;BME280;2783;48.730;8.006;2023-01-28T13:41:05;101060.16;;;5.79;95.09
5522;BME280;2783;48.730;8.006;2023-01-28T13:46:11;101061.13;;;5.93;94.46
5522;BME280;2783;48.730;8.006;2023-01-28T13:48:49;101062.00;;;5.95;95.40
5522;BME280;2783;48.730;8.006;2023-01-28T13:51:20;101073.47;;;6.01;94.68
5522;BME280;2783;48.730;8.006;2023-01-28T13:56:21;101072.59;;;6.05;94.21
5522;BME280;2783;48.730;8.006;2023-01-28T14:03:49;101065.53;;;5.97;93.19
5522;BME280;2783;48.730;8.006;2023-01-28T14:19:02;101081.38;;;5.88;91.36
5522;BME280;2783;48.730;8.006;2023-01-28T14:21:27;101082.22;;;5.90;91.38
5522;BME280;2783;48.730;8.006;2023-01-28T14:23:56;101086.66;;;5.88;90.99
5522;BME280;2783;48.730;8.006;2023-01-28T14:26:26;101078.69;;;5.83;90.13
5522;BME280;2783;48.730;8.006;2023-01-28T14:31:26;101089.28;;;5.95;89.92
5522;BME280;2783;48.730;8.006;2023-01-28T14:33:52;101091.97;;;6.03;90.24
5522;BME280;2783;48.730;8.006;2023-01-28T14:36:18;101091.94;;;6.00;89.03
5522;BME280;2783;48.730;8.006;2023-01-28T14:38:43;101095.47;;;5.96;88.82
5522;BME280;2783;48.730;8.006;2023-01-28T14:41:10;101095.47;;;5.96;89.75
5522;BME280;2783;48.730;8.006;2023-01-28T14:43:42;101109.56;;;6.04;90.24
5522;BME280;2783;48.730;8.006;2023-01-28T14:48:40;101118.34;;;5.94;90.10
5522;BME280;2783;48.730;8.006;2023-01-28T14:51:20;101124.47;;;5.90;90.10
5522;BME280;2783;48.730;8.006;2023-01-28T14:53:51;101118.25;;;5.82;89.43
5522;BME280;2783;48.730;8.006;2023-01-28T14:56:25;101125.25;;;5.77;89.38
5522;BME280;2783;48.730;8.006;2023-01-28T14:58:56;101134.06;;;5.76;89.20
5522;BME280;2783;48.730;8.006;2023-01-28T15:01:24;101132.31;;;5.79;90.10
5522;BME280;2783;48.730;8.006;2023-01-28T15:03:50;101139.34;;;5.79;90.18
5522;BME280;2783;48.730;8.006;2023-01-28T15:06:20;101141.09;;;5.77;89.19
5522;BME280;2783;48.730;8.006;2023-01-28T15:08:46;101142.88;;;5.73;88.67
5522;BME280;2783;48.730;8.006;2023-01-28T15:11:12;101137.56;;;5.72;87.98
5522;BME280;2783;48.730;8.006;2023-01-28T15:13:45;101139.34;;;5.73;87.87
5522;BME280;2783;48.730;8.006;2023-01-28T15:16:15;101140.19;;;5.69;87.87
5522;BME280;2783;48.730;8.006;2023-01-28T15:18:42;101144.63;;;5.73;87.31
5522;BME280;2783;48.730;8.006;2023-01-28T15:21:07;101142.81;;;5.66;86.68
5522;BME280;2783;48.730;8.006;2023-01-28T15:23:34;101138.41;;;5.62;86.50